createdAt,value
2022-10-17T00:02:20.965Z,14.31
2022-10-17T00:07:10.471Z,14.29
2022-10-17T00:12:02.761Z,14.26
2022-10-17T00:16:52.175Z,14.24
2022-10-17T00:21:41.529Z,14.21
2022-10-17T00:26:31.308Z,14.20
2022-10-17T00:31:23.894Z,14.19
2022-10-17T00:36:14.927Z,14.17
2022-10-17T00:41:05.144Z,14.17
2022-10-17T00:45:54.558Z,14.14
2022-10-17T00:50:48.113Z,14.14
2022-10-17T00:55:38.584Z,14.13
2022-10-17T01:00:28.058Z,14.13
2022-10-17T01:05:18.066Z,14.12
2022-10-17T01:10:11.271Z,14.10
2022-10-17T01:15:08.246Z,14.09
2022-10-17T01:20:19.366Z,14.09
2022-10-17T01:25:21.670Z,14.07
2022-10-17T01:30:26.386Z,14.05
2022-10-17T01:35:22.991Z,14.06
2022-10-17T01:40:14.585Z,14.06
2022-10-17T01:45:06.419Z,14.04
2022-10-17T01:49:57.166Z,14.04
2022-10-17T01:54:51.679Z,14.05
2022-10-17T01:59:43.151Z,14.05
2022-10-17T02:04:32.721Z,14.06
2022-10-17T02:09:23.270Z,14.08
2022-10-17T02:14:24.142Z,14.10
2022-10-17T02:19:24.041Z,14.13
2022-10-17T02:24:20.533Z,14.14
2022-10-17T02:29:11.382Z,14.22
2022-10-17T02:34:05.162Z,14.30
2022-10-17T02:38:57.515Z,14.37
2022-10-17T02:43:48.599Z,14.45
2022-10-17T02:48:41.318Z,14.57
2022-10-17T02:53:42.747Z,14.64
2022-10-17T02:58:35.029Z,14.69
2022-10-17T03:03:26.431Z,14.78
2022-10-17T03:08:15.868Z,14.84
2022-10-17T03:13:07.991Z,14.90
2022-10-17T03:18:01.539Z,14.94
2022-10-17T03:22:50.915Z,14.96
2022-10-17T03:27:40.346Z,14.95
2022-10-17T03:32:32.418Z,14.95
2022-10-17T03:37:22.087Z,14.94
2022-10-17T03:42:12.494Z,14.89
2022-10-17T03:47:02.093Z,14.84
2022-10-17T03:51:54.899Z,14.82
2022-10-17T03:56:44.497Z,14.76
2022-10-17T04:01:37.525Z,14.75
2022-10-17T04:06:27.417Z,14.76
2022-10-17T04:11:20.673Z,14.77
2022-10-17T04:16:13.132Z,14.78
2022-10-17T04:21:10.299Z,14.83
2022-10-17T04:26:00.226Z,14.87
2022-10-17T04:30:58.147Z,14.90
2022-10-17T04:35:57.883Z,14.91
2022-10-17T04:40:47.564Z,14.92
2022-10-17T04:45:37.668Z,14.95
2022-10-17T04:50:30.943Z,14.99
2022-10-17T04:55:47.565Z,15.04
2022-10-17T05:00:37.073Z,15.08
2022-10-17T05:05:39.783Z,15.13
2022-10-17T05:10:29.334Z,15.18
2022-10-17T05:15:20.451Z,15.23
2022-10-17T05:20:13.043Z,15.27
2022-10-17T05:25:06.500Z,15.31
2022-10-17T05:29:56.706Z,15.34
2022-10-17T05:34:50.457Z,15.39
2022-10-17T05:39:40.550Z,15.41
2022-10-17T05:44:34.468Z,15.43
2022-10-17T05:49:33.286Z,15.44
2022-10-17T05:54:35.151Z,15.43
2022-10-17T05:59:25.121Z,15.46
2022-10-17T06:04:22.640Z,15.49
2022-10-17T06:09:12.736Z,15.49
2022-10-17T06:14:06.343Z,15.53
2022-10-17T06:18:57.977Z,15.53
2022-10-17T06:23:50.136Z,15.54
2022-10-17T06:28:47.839Z,15.57
2022-10-17T06:33:37.378Z,15.61
2022-10-17T06:38:28.343Z,15.63
2022-10-17T06:43:27.838Z,15.63
2022-10-17T06:48:36.339Z,15.63
2022-10-17T06:53:38.607Z,15.64
2022-10-17T06:58:53.944Z,15.68
2022-10-17T07:03:50.635Z,15.69
2022-10-17T07:08:42.169Z,15.72
2022-10-17T07:13:36.775Z,15.70
2022-10-17T07:18:31.006Z,15.72
2022-10-17T07:23:20.490Z,15.69
2022-10-17T07:28:10.027Z,15.66
2022-10-17T07:33:01.370Z,15.70
2022-10-17T07:37:53.962Z,15.72
2022-10-17T07:42:44.339Z,15.76
2022-10-17T07:47:35.845Z,15.84
2022-10-17T07:52:27.450Z,15.91
2022-10-17T07:57:19.786Z,15.93
2022-10-17T08:02:10.254Z,15.95
2022-10-17T08:07:11.603Z,16.00
2022-10-17T08:12:09.859Z,16.11
2022-10-17T08:17:02.011Z,16.06
2022-10-17T08:21:52.366Z,16.13
2022-10-17T08:26:43.550Z,16.13
2022-10-17T08:31:34.791Z,16.08
2022-10-17T08:36:29.485Z,16.08
2022-10-17T08:41:25.087Z,16.11
2022-10-17T08:51:08.335Z,16.11
2022-10-17T08:56:01.018Z,16.13
2022-10-17T09:00:53.341Z,16.16
2022-10-17T09:05:49.384Z,16.15
2022-10-17T09:10:45.401Z,16.13
2022-10-17T09:15:44.393Z,16.15
2022-10-17T09:20:35.093Z,16.18
2022-10-17T09:25:24.613Z,16.23
2022-10-17T09:30:44.645Z,16.29
2022-10-17T09:35:38.668Z,16.31
2022-10-17T09:40:30.793Z,16.32
2022-10-17T09:45:24.963Z,16.33
2022-10-17T09:50:18.803Z,16.35
2022-10-17T09:55:24.997Z,16.35
2022-10-17T10:00:23.915Z,16.32
2022-10-17T10:05:19.138Z,16.32
2022-10-17T10:10:27.906Z,16.33
2022-10-17T10:15:33.902Z,16.33
2022-10-17T10:20:32.195Z,16.32
2022-10-17T10:25:24.511Z,16.33
2022-10-17T10:30:20.451Z,16.33
2022-10-17T10:35:11.758Z,16.30
2022-10-17T10:40:02.353Z,16.32
2022-10-17T10:44:54.634Z,16.30
2022-10-17T10:49:44.493Z,16.25
2022-10-17T10:54:36.972Z,16.30
2022-10-17T10:59:31.097Z,16.27
2022-10-17T11:04:33.014Z,16.26
2022-10-17T11:09:30.100Z,16.27
2022-10-17T11:14:31.585Z,16.28
2022-10-17T11:19:24.799Z,16.28
2022-10-17T11:24:19.367Z,16.30
2022-10-17T11:29:09.709Z,16.31
2022-10-17T11:34:02.057Z,16.31
2022-10-17T11:38:53.694Z,16.32
2022-10-17T11:43:49.071Z,16.45
2022-10-17T11:48:40.050Z,16.53
2022-10-17T11:53:31.895Z,16.56
2022-10-17T11:58:32.897Z,16.61
2022-10-17T12:03:34.358Z,16.59
2022-10-17T12:08:29.164Z,16.57
2022-10-17T12:13:35.894Z,16.58
2022-10-17T12:18:29.983Z,16.59
2022-10-17T12:23:26.083Z,16.63
2022-10-17T12:28:17.861Z,16.69
2022-10-17T12:33:22.521Z,16.69
2022-10-17T12:38:29.842Z,16.69
2022-10-17T12:43:34.296Z,16.71
2022-10-17T12:48:39.053Z,16.77
2022-10-17T12:53:36.991Z,16.85
2022-10-17T12:58:26.417Z,16.91
2022-10-17T13:03:19.236Z,16.74
2022-10-17T13:08:17.045Z,16.84
2022-10-17T13:13:19.689Z,16.78
2022-10-17T13:18:09.422Z,16.85
2022-10-17T13:22:59.866Z,16.85
2022-10-17T13:27:50.539Z,16.82
2022-10-17T13:32:45.220Z,16.85
2022-10-17T13:37:34.938Z,16.87
2022-10-17T13:42:29.106Z,16.81
2022-10-17T13:47:27.629Z,16.96
2022-10-17T13:52:22.098Z,16.99
2022-10-17T13:57:22.707Z,17.01
2022-10-17T14:02:18.076Z,17.06
2022-10-17T14:07:09.058Z,17.11
2022-10-17T14:12:12.834Z,17.16
2022-10-17T14:17:02.556Z,17.19
2022-10-17T14:21:57.263Z,17.27
2022-10-17T14:26:51.265Z,17.32
2022-10-17T14:31:43.835Z,17.31
2022-10-17T14:36:42.351Z,17.30
2022-10-17T14:41:42.848Z,17.27
2022-10-17T14:46:39.347Z,17.24
2022-10-17T14:51:44.658Z,17.21
2022-10-17T14:56:45.861Z,17.22
2022-10-17T15:01:36.435Z,17.23
2022-10-17T15:06:27.922Z,17.20
2022-10-17T15:11:21.766Z,17.18
2022-10-17T15:16:17.773Z,17.16
2022-10-17T15:21:25.737Z,17.17
2022-10-17T15:26:19.122Z,17.14
2022-10-17T15:31:12.333Z,17.09
2022-10-17T15:36:02.632Z,17.06
2022-10-17T15:40:52.758Z,17.00
2022-10-17T15:45:43.297Z,16.97
2022-10-17T15:50:35.944Z,16.91
2022-10-17T15:55:28.385Z,16.88
2022-10-17T16:00:23.233Z,16.86
2022-10-17T16:05:16.677Z,16.84
2022-10-17T16:10:10.446Z,16.81
2022-10-17T16:14:59.978Z,16.78
2022-10-17T16:19:57.991Z,16.73
2022-10-17T16:25:12.840Z,16.69
2022-10-17T16:30:06.842Z,16.64
2022-10-17T16:34:56.821Z,16.59
2022-10-17T16:39:49.358Z,16.57
2022-10-17T16:44:39.848Z,16.51
2022-10-17T16:49:35.113Z,16.46
2022-10-17T16:54:30.427Z,16.42
2022-10-17T16:59:24.273Z,16.35
2022-10-17T17:04:15.472Z,16.31
2022-10-17T17:09:09.445Z,16.26
2022-10-17T17:14:03.128Z,16.23
2022-10-17T17:18:57.106Z,16.19
2022-10-17T17:23:49.325Z,16.15
2022-10-17T17:28:42.626Z,16.15
2022-10-17T17:33:34.062Z,16.09
2022-10-17T17:38:24.259Z,16.05
2022-10-17T17:43:17.923Z,16.01
2022-10-17T17:48:15.199Z,15.97
2022-10-17T17:53:15.222Z,15.94
2022-10-17T17:58:06.901Z,15.90
2022-10-17T18:03:00.518Z,15.89
2022-10-17T18:07:53.753Z,15.87
2022-10-17T18:12:53.845Z,15.85
2022-10-17T18:17:47.062Z,15.81
2022-10-17T18:22:39.533Z,15.78
2022-10-17T18:27:41.983Z,15.76
2022-10-17T18:32:36.254Z,15.74
2022-10-17T18:37:26.587Z,15.73
2022-10-17T18:42:18.733Z,15.74
2022-10-17T18:47:11.311Z,15.74
2022-10-17T18:52:02.306Z,15.72
2022-10-17T18:56:58.900Z,15.68
2022-10-17T19:01:48.853Z,15.67
2022-10-17T19:06:46.088Z,15.66
2022-10-17T19:11:37.571Z,15.67
2022-10-17T19:16:29.157Z,15.67
2022-10-17T19:21:22.500Z,15.66
2022-10-17T19:26:16.249Z,15.65
2022-10-17T19:31:16.893Z,15.63
2022-10-17T19:36:12.120Z,15.62
2022-10-17T19:41:01.623Z,15.61
2022-10-17T19:46:04.483Z,15.59
2022-10-17T19:50:54.662Z,15.58
2022-10-17T19:55:44.661Z,15.56
2022-10-17T20:00:34.512Z,15.57
2022-10-17T20:05:28.267Z,15.55
2022-10-17T20:10:23.837Z,15.52
2022-10-17T20:15:17.137Z,15.52
2022-10-17T20:20:08.899Z,15.52
2022-10-17T20:25:01.912Z,15.52
2022-10-17T20:29:52.095Z,15.51
2022-10-17T20:34:43.152Z,15.48
2022-10-17T20:39:33.165Z,15.46
2022-10-17T20:44:26.107Z,15.45
2022-10-17T20:49:18.000Z,15.45
2022-10-17T20:54:09.510Z,15.45
2022-10-17T20:59:00.518Z,15.43
2022-10-17T21:03:53.385Z,15.39
2022-10-17T21:08:44.329Z,15.36
2022-10-17T21:13:37.216Z,15.35
2022-10-17T21:18:27.219Z,15.32
2022-10-17T21:23:19.592Z,15.26
2022-10-17T21:28:10.336Z,15.21
2022-10-17T21:33:01.274Z,15.17
2022-10-17T21:37:54.291Z,15.16
2022-10-17T21:42:46.949Z,15.13
2022-10-17T21:47:38.561Z,15.14
2022-10-17T21:52:29.495Z,15.14
2022-10-17T21:57:20.004Z,15.11
2022-10-17T22:02:14.851Z,15.06
2022-10-17T22:07:04.958Z,15.03
2022-10-17T22:11:55.937Z,15.02
2022-10-17T22:16:48.032Z,14.99
2022-10-17T22:21:40.652Z,14.97
2022-10-17T22:26:31.556Z,14.95
2022-10-17T22:31:22.723Z,14.94
2022-10-17T22:36:13.162Z,14.90
2022-10-17T22:41:06.760Z,14.87
2022-10-17T22:46:04.593Z,14.83
2022-10-17T22:50:55.316Z,14.80
2022-10-17T22:55:48.563Z,14.78
2022-10-17T23:00:41.835Z,14.77
2022-10-17T23:05:33.268Z,14.75
2022-10-17T23:10:28.185Z,14.72
2022-10-17T23:15:18.151Z,14.70
2022-10-17T23:20:15.907Z,14.67
2022-10-17T23:25:05.895Z,14.66
2022-10-17T23:29:56.076Z,14.62
2022-10-17T23:34:46.597Z,14.62
2022-10-17T23:39:41.823Z,14.60
2022-10-17T23:44:31.978Z,14.56
2022-10-17T23:49:22.266Z,14.56
2022-10-17T23:54:12.318Z,14.55
2022-10-17T23:59:07.141Z,14.53
